Time;durP1;ratioP1;P1;durP2;ratioP2;P2;SDS_P1;SDS_P2;PMS_P1;PMS_P2;Temp;Humidity;BMP_temperature;BMP_pressure;BME280_temperature;BME280_humidity;BME280_pressure;Samples;Min_cycle;Max_cycle;Signal;HPM_P1;HPM_P2
2021/01/13 00:01:04;;;;;;;1.30;0.20;;;;;;;11.45;50.05;99904.84;4922977;28;98223;-62
2021/01/13 00:03:31;;;;;;;1.30;0.30;;;;;;;11.44;50.53;99912.16;4906180;28;97838;-62
2021/01/13 00:05:57;;;;;;;1.50;0.30;;;;;;;11.46;50.08;99914.56;4923369;28;128632;-62
2021/01/13 00:08:23;;;;;;;2.20;0.30;;;;;;;11.45;50.52;99929.94;4923310;28;126879;-62
2021/01/13 00:10:49;;;;;;;1.63;0.30;;;;;;;11.47;50.54;99933.16;4924529;28;125813;-62
2021/01/13 00:13:15;;;;;;;1.52;0.30;;;;;;;11.53;50.42;99926.63;4924971;28;98383;-62
2021/01/13 00:15:41;;;;;;;2.20;0.38;;;;;;;11.48;50.39;99933.97;4923970;28;98366;-62
2021/01/13 00:18:07;;;;;;;1.38;0.30;;;;;;;11.51;50.17;99939.59;4924011;28;104963;-62
2021/01/13 00:20:33;;;;;;;1.98;0.30;;;;;;;11.50;50.49;99931.78;4922836;28;127488;-62
2021/01/13 00:22:59;;;;;;;1.75;0.30;;;;;;;11.47;50.06;99933.16;4923838;28;97785;-62
2021/01/13 00:25:26;;;;;;;1.92;0.30;;;;;;;11.48;50.61;99945.56;4923782;28;127927;-62
2021/01/13 00:27:52;;;;;;;1.95;0.30;;;;;;;11.50;50.24;99940.69;4905285;28;99740;-62
2021/01/13 00:30:18;;;;;;;2.13;0.30;;;;;;;11.49;50.64;99947.19;4905199;28;127339;-62
2021/01/13 00:32:44;;;;;;;1.70;0.35;;;;;;;11.52;50.28;99951.22;4923889;28;97915;-62
2021/01/13 00:35:11;;;;;;;2.20;0.40;;;;;;;11.57;50.33;99950.34;4905386;28;99165;-62
2021/01/13 00:37:38;;;;;;;1.88;0.40;;;;;;;11.51;50.71;99958.50;4923948;28;98544;-62
2021/01/13 00:40:06;;;;;;;1.92;0.30;;;;;;;11.51;50.49;99947.72;4923282;28;98148;-62
2021/01/13 00:42:32;;;;;;;1.73;0.40;;;;;;;11.50;50.67;99951.47;4905088;28;97956;-62
2021/01/13 00:44:58;;;;;;;2.05;0.50;;;;;;;11.52;50.58;99949.31;4923277;28;127883;-62
2021/01/13 00:47:25;;;;;;;1.42;0.40;;;;;;;11.55;50.37;99959.53;4922791;28;110218;-62
2021/01/13 00:49:51;;;;;;;2.38;0.40;;;;;;;11.52;50.15;99960.09;4922600;28;127613;-61
2021/01/13 00:52:17;;;;;;;2.10;0.43;;;;;;;11.54;50.39;99962.50;4921093;28;117818;-62
2021/01/13 00:54:43;;;;;;;2.10;0.50;;;;;;;11.53;49.98;99956.31;4916351;28;124593;-61
2021/01/13 00:57:09;;;;;;;1.75;0.30;;;;;;;11.55;50.25;99964.94;4884780;28;126329;-61
2021/01/13 00:59:35;;;;;;;1.95;0.40;;;;;;;11.54;50.45;99966.00;4901317;28;125333;-62
2021/01/13 01:02:01;;;;;;;1.90;0.30;;;;;;;11.55;50.17;99970.34;4885808;28;97839;-62
2021/01/13 01:04:27;;;;;;;2.15;0.50;;;;;;;11.55;50.17;99972.22;4903094;28;127221;-61
2021/01/13 01:06:53;;;;;;;2.33;0.50;;;;;;;11.54;50.34;99976.81;4900324;28;126394;-62
2021/01/13 01:09:19;;;;;;;1.42;0.32;;;;;;;11.53;50.62;99969.00;4902431;28;125566;-61
2021/01/13 01:11:45;;;;;;;1.52;0.30;;;;;;;11.53;50.34;99966.31;4902121;28;117913;-61
2021/01/13 01:14:11;;;;;;;3.28;0.50;;;;;;;11.49;50.59;99973.38;4868332;28;128810;-61
2021/01/13 01:16:40;;;;;;;3.10;0.40;;;;;;;11.47;50.26;99970.94;4901134;28;100157;-61
2021/01/13 01:19:07;;;;;;;4.55;0.40;;;;;;;11.49;50.25;99976.06;4881760;28;115064;-61
2021/01/13 01:21:33;;;;;;;1.73;0.30;;;;;;;11.45;50.40;99994.72;4904229;28;97806;-61
2021/01/13 01:23:59;;;;;;;2.60;0.43;;;;;;;11.43;50.40;99983.38;4885047;28;99181;-61
2021/01/13 01:26:25;;;;;;;2.17;0.50;;;;;;;11.41;50.39;99987.47;4902821;28;128140;-61
2021/01/13 01:28:51;;;;;;;3.20;0.40;;;;;;;11.38;50.55;99985.34;4891974;28;126457;-61
2021/01/13 01:31:17;;;;;;;1.98;0.30;;;;;;;11.37;50.55;99994.53;4901035;28;102806;-61
2021/01/13 01:33:43;;;;;;;2.60;0.50;;;;;;;11.33;50.38;99999.69;4902248;28;118950;-62
2021/01/13 01:36:10;;;;;;;3.28;0.40;;;;;;;11.31;50.78;100008.03;4903349;28;102724;-62
2021/01/13 01:38:36;;;;;;;2.22;0.30;;;;;;;11.28;50.14;100008.63;4903392;28;98618;-61
2021/01/13 01:41:07;;;;;;;1.92;0.22;;;;;;;11.25;50.56;100001.09;4902723;28;104487;-62
2021/01/13 01:43:33;;;;;;;2.72;0.40;;;;;;;11.23;50.19;100007.84;4884938;28;115523;-61
2021/01/13 01:45:59;;;;;;;1.73;0.40;;;;;;;11.25;50.83;100017.28;4902736;28;120416;-61
2021/01/13 01:48:35;;;;;;;1.88;0.32;;;;;;;11.25;50.12;100011.09;4902840;28;114694;-61
2021/01/13 01:51:02;;;;;;;2.90;0.30;;;;;;;11.27;50.71;100011.59;4901280;28;107966;-61
2021/01/13 01:53:42;;;;;;;3.03;0.40;;;;;;;11.27;50.51;100023.19;4895079;28;98073;-61
2021/01/13 01:56:13;;;;;;;3.35;0.35;;;;;;;11.28;49.88;100027.53;4920927;28;117793;-61
2021/01/13 01:58:39;;;;;;;2.78;0.30;;;;;;;11.30;50.08;100024.53;4919549;28;116533;-62
2021/01/13 02:01:06;;;;;;;2.78;0.30;;;;;;;11.30;50.25;100028.03;4887604;28;117381;-61
2021/01/13 02:03:53;;;;;;;3.85;0.30;;;;;;;11.33;50.18;100029.38;4903591;28;123174;-61
2021/01/13 02:06:21;;;;;;;2.65;0.40;;;;;;;11.41;50.29;100017.97;4920573;28;98239;-61
2021/01/13 02:08:48;;;;;;;2.30;0.30;;;;;;;11.47;49.83;100019.50;4920426;28;98061;-61
2021/01/13 02:11:18;;;;;;;2.45;0.38;;;;;;;11.52;50.01;100024.09;4922296;28;97807;-62
2021/01/13 02:13:45;;;;;;;2.75;0.30;;;;;;;11.52;49.62;100024.09;4921693;28;98428;-61
2021/01/13 02:16:12;;;;;;;2.92;0.30;;;;;;;11.54;49.37;100019.19;4921881;28;99073;-61
2021/01/13 02:18:40;;;;;;;1.67;0.28;;;;;;;11.58;49.81;100025.63;4921380;28;115414;-62
2021/01/13 02:21:07;;;;;;;2.85;0.30;;;;;;;11.59;49.09;100021.03;4904441;28;106496;-62
2021/01/13 02:23:34;;;;;;;1.80;0.38;;;;;;;11.57;49.76;100020.53;4887297;28;118721;-62
2021/01/13 02:26:28;;;;;;;2.53;0.38;;;;;;;11.58;49.82;100022.13;4921583;28;98883;-62
2021/01/13 02:29:09;;;;;;;2.13;0.30;;;;;;;11.57;49.35;100018.63;4921688;28;97937;-62
2021/01/13 02:31:52;;;;;;;2.85;0.30;;;;;;;11.59;49.66;100016.44;4922120;28;97924;-62
2021/01/13 02:34:35;;;;;;;2.95;0.40;;;;;;;11.62;49.62;100023.16;4903719;28;98438;-62
2021/01/13 02:37:54;;;;;;;2.83;0.30;;;;;;;11.61;49.49;100021.56;4919128;28;98079;-62
2021/01/13 02:40:23;;;;;;;1.63;0.30;;;;;;;11.60;49.49;100023.47;4922034;28;98001;-62
2021/01/13 02:43:09;;;;;;;2.33;0.30;;;;;;;11.63;49.01;100020.19;4920870;28;98194;-62
2021/01/13 02:45:40;;;;;;;2.85;0.30;;;;;;;11.61;49.42;100016.97;4922058;28;98462;-62
2021/01/13 02:48:11;;;;;;;2.25;0.30;;;;;;;11.63;49.43;100028.31;4903314;28;116317;-62
2021/01/13 02:50:42;;;;;;;2.20;0.20;;;;;;;11.62;49.22;100026.66;4921858;28;98528;-62
2021/01/13 02:53:14;;;;;;;3.00;0.20;;;;;;;11.64;49.35;100035.31;4921712;28;108364;-62
2021/01/13 02:55:46;;;;;;;2.22;0.30;;;;;;;11.65;49.37;100034.22;4921971;28;98462;-62
2021/01/13 02:58:23;;;;;;;2.95;0.30;;;;;;;11.60;49.43;100033.47;4921820;28;98402;-61
2021/01/13 03:00:50;;;;;;;2.20;0.30;;;;;;;11.61;49.35;100035.06;4905286;28;105993;-62
2021/01/13 03:03:17;;;;;;;2.17;0.25;;;;;;;11.58;49.75;100036.44;4921176;28;97869;-62
2021/01/13 03:05:45;;;;;;;2.47;0.32;;;;;;;11.57;49.19;100032.13;4920160;28;97904;-62
2021/01/13 03:08:12;;;;;;;2.75;0.38;;;;;;;11.58;49.17;100033.72;4903862;28;98101;-62
2021/01/13 03:10:38;;;;;;;2.10;0.20;;;;;;;11.55;49.74;100045.09;4919310;28;107114;-62
2021/01/13 03:13:06;;;;;;;2.42;0.30;;;;;;;11.52;49.10;100035.69;4920385;28;109789;-62
2021/01/13 03:15:33;;;;;;;2.13;0.30;;;;;;;11.55;49.37;100051.31;4920012;28;98111;-62
2021/01/13 03:18:20;;;;;;;2.63;0.30;;;;;;;11.53;49.54;100045.38;4906546;28;98335;-62
2021/01/13 03:21:05;;;;;;;2.47;0.30;;;;;;;11.57;48.99;100050.22;4889197;28;114056;-62
2021/01/13 03:23:45;;;;;;;2.60;0.30;;;;;;;11.52;49.76;100051.06;4923394;28;97852;-62
2021/01/13 03:26:12;;;;;;;2.65;0.30;;;;;;;11.52;49.77;100056.47;4906154;28;114602;-62
2021/01/13 03:28:38;;;;;;;3.08;0.40;;;;;;;11.53;49.32;100052.69;4905394;28;122675;-62
2021/01/13 03:31:05;;;;;;;3.38;0.30;;;;;;;11.56;49.63;100046.72;4921846;28;127501;-62
2021/01/13 03:34:29;;;;;;;1.90;0.22;;;;;;;11.54;49.40;100046.97;4907545;28;98669;-62
2021/01/13 03:36:58;;;;;;;2.95;0.30;;;;;;;11.54;49.21;100043.47;4895227;28;99154;-62
2021/01/13 03:39:24;;;;;;;2.78;0.40;;;;;;;11.56;49.30;100046.72;4924654;28;98853;-62
2021/01/13 03:41:53;;;;;;;2.70;0.40;;;;;;;11.58;49.55;100049.91;4924847;28;98188;-62
2021/01/13 03:44:30;;;;;;;3.03;0.30;;;;;;;11.56;49.03;100054.81;4924799;28;97821;-62
2021/01/13 03:47:01;;;;;;;2.15;0.40;;;;;;;11.54;49.39;100046.19;4923636;28;98533;-62
2021/01/13 03:49:27;;;;;;;1.95;0.30;;;;;;;11.55;49.08;100045.09;4907006;28;119285;-62
2021/01/13 03:52:03;;;;;;;1.73;0.20;;;;;;;11.53;49.12;100045.38;4921699;28;100388;-62
2021/01/13 03:54:34;;;;;;;2.00;0.30;;;;;;;11.56;48.88;100046.72;4924624;28;99423;-62
2021/01/13 03:57:07;;;;;;;1.92;0.28;;;;;;;11.58;49.18;100032.94;4904968;28;99084;-62
2021/01/13 04:00:01;;;;;;;2.60;0.30;;;;;;;11.55;49.04;100040.50;4922471;28;117337;-63
2021/01/13 04:02:29;;;;;;;2.92;0.40;;;;;;;11.53;49.21;100045.38;4924998;28;97910;-62
2021/01/13 04:05:18;;;;;;;2.35;0.40;;;;;;;11.53;49.11;100039.97;4890215;28;97961;-63
2021/01/13 04:07:44;;;;;;;4.38;0.40;;;;;;;11.53;49.56;100036.47;4907084;28;98488;-62
2021/01/13 04:10:12;;;;;;;2.10;0.30;;;;;;;11.52;48.77;100048.38;4889691;28;127984;-62
2021/01/13 04:12:57;;;;;;;3.10;0.40;;;;;;;11.50;49.45;100055.94;4906107;28;98100;-62
2021/01/13 04:15:38;;;;;;;2.72;0.40;;;;;;;11.48;48.92;100052.72;4922131;28;97803;-62
2021/01/13 04:18:09;;;;;;;2.28;0.22;;;;;;;11.49;49.26;100048.94;4921808;28;98290;-62
2021/01/13 04:20:36;;;;;;;1.90;0.30;;;;;;;11.47;49.12;100049.19;4924610;28;99158;-62
2021/01/13 04:23:03;;;;;;;3.35;0.40;;;;;;;11.44;48.82;100049.78;4904764;28;112639;-62
2021/01/13 04:25:30;;;;;;;2.42;0.30;;;;;;;11.46;48.76;100063.00;4923760;28;105569;-62
2021/01/13 04:27:56;;;;;;;2.08;0.30;;;;;;;11.46;49.44;100058.38;4923070;28;101177;-62
2021/01/13 04:30:26;;;;;;;2.22;0.30;;;;;;;11.45;49.26;100062.19;4919640;28;128402;-62
2021/01/13 04:32:56;;;;;;;3.72;0.50;;;;;;;11.45;49.46;100051.38;4905921;28;98278;-62
2021/01/13 04:35:26;;;;;;;2.65;0.30;;;;;;;11.47;49.52;100059.19;4922316;28;106055;-62
2021/01/13 04:37:54;;;;;;;2.85;0.40;;;;;;;11.47;49.00;100059.19;4923170;28;99011;-62
2021/01/13 04:40:33;;;;;;;2.60;0.30;;;;;;;11.49;49.03;100057.84;4923416;28;97834;-62
2021/01/13 04:43:07;;;;;;;3.22;0.40;;;;;;;11.50;48.92;100061.34;4923754;28;98349;-62
2021/01/13 04:45:44;;;;;;;2.33;0.32;;;;;;;11.52;49.10;100059.16;4906255;28;98059;-62
2021/01/13 04:48:12;;;;;;;2.00;0.30;;;;;;;11.48;49.18;100053.53;4904875;28;98957;-62
2021/01/13 04:50:44;;;;;;;3.30;0.38;;;;;;;11.50;49.08;100048.63;4922814;28;116234;-63
2021/01/13 04:53:12;;;;;;;2.90;0.40;;;;;;;11.49;48.79;100055.13;4923170;28;98570;-62
2021/01/13 04:55:55;;;;;;;3.70;0.30;;;;;;;11.48;48.81;100055.44;4922729;28;108188;-62
2021/01/13 04:58:21;;;;;;;3.17;0.32;;;;;;;11.46;49.16;100061.09;4922918;28;98966;-62
2021/01/13 05:01:40;;;;;;;2.58;0.30;;;;;;;11.47;48.96;100059.19;4923388;28;97969;-62
2021/01/13 05:04:28;;;;;;;3.40;0.32;;;;;;;11.43;48.83;100060.84;4921071;28;97990;-62
2021/01/13 05:07:25;;;;;;;2.60;0.40;;;;;;;11.43;49.13;100058.16;4922636;28;98180;-62
2021/01/13 05:09:54;;;;;;;3.08;0.35;;;;;;;11.46;49.08;100053.00;4922708;28;98952;-62
2021/01/13 05:12:20;;;;;;;2.92;0.50;;;;;;;11.44;49.35;100054.38;4923039;28;98347;-62
2021/01/13 05:14:46;;;;;;;2.15;0.35;;;;;;;11.46;49.45;100054.88;4888312;28;127524;-62
2021/01/13 05:17:46;;;;;;;2.00;0.30;;;;;;;11.44;48.97;100054.38;4903182;28;116958;-62
2021/01/13 05:20:29;;;;;;;2.72;0.30;;;;;;;11.43;49.36;100052.75;4904692;28;98923;-62
2021/01/13 05:22:56;;;;;;;1.73;0.20;;;;;;;11.46;48.98;100054.88;4922892;28;108112;-62
2021/01/13 05:25:45;;;;;;;3.03;0.30;;;;;;;11.44;49.46;100063.28;4923460;28;97980;-62
2021/01/13 05:28:18;;;;;;;2.28;0.30;;;;;;;11.48;49.00;100060.81;4923441;28;97857;-62
2021/01/13 05:30:48;;;;;;;2.83;0.40;;;;;;;11.46;49.54;100063.78;4905685;28;98303;-62
2021/01/13 05:33:30;;;;;;;3.03;0.47;;;;;;;11.47;49.30;100062.69;4922455;28;98613;-62
2021/01/13 05:35:58;;;;;;;3.60;0.30;;;;;;;11.47;49.57;100070.00;4921467;28;98333;-63
2021/01/13 05:39:02;;;;;;;1.92;0.30;;;;;;;11.51;49.23;100071.88;4923069;28;98043;-62
2021/01/13 05:41:29;;;;;;;2.35;0.30;;;;;;;11.49;49.19;100071.31;4921630;28;98039;-61
2021/01/13 05:43:55;;;;;;;3.22;0.30;;;;;;;11.51;49.30;100071.03;4922812;28;98550;-62
2021/01/13 05:46:22;;;;;;;2.65;0.30;;;;;;;11.50;49.46;100081.03;4904655;28;115489;-62
2021/01/13 05:48:53;;;;;;;4.18;0.52;;;;;;;11.53;49.29;100079.66;4923541;28;97874;-62
2021/01/13 05:51:28;;;;;;;2.53;0.30;;;;;;;11.49;49.13;100079.44;4921265;28;114624;-62
2021/01/13 05:53:55;;;;;;;2.50;0.30;;;;;;;11.52;48.57;100073.47;4922046;28;118046;-62
2021/01/13 05:56:21;;;;;;;2.03;0.30;;;;;;;11.54;49.27;100073.16;4922266;28;98390;-62
2021/01/13 05:58:59;;;;;;;2.38;0.30;;;;;;;11.55;48.62;100067.50;4922131;28;111939;-62
2021/01/13 06:01:47;;;;;;;1.80;0.40;;;;;;;11.55;48.63;100072.06;4905868;28;116226;-63
2021/01/13 06:04:15;;;;;;;3.88;0.40;;;;;;;11.55;49.03;100074.78;4921958;28;113684;-62
2021/01/13 06:07:03;;;;;;;2.42;0.30;;;;;;;11.55;48.80;100075.59;4919896;28;110376;-63
2021/01/13 06:09:29;;;;;;;1.92;0.20;;;;;;;11.53;48.96;100074.28;4923183;28;97648;-62
2021/01/13 06:11:56;;;;;;;2.42;0.30;;;;;;;11.57;48.95;100079.91;4902931;28;119437;-62
2021/01/13 06:14:27;;;;;;;2.88;0.40;;;;;;;11.55;48.41;100075.59;4922883;28;99134;-62
2021/01/13 06:16:53;;;;;;;3.13;0.40;;;;;;;11.54;49.14;100076.69;4922409;28;97914;-62
2021/01/13 06:19:20;;;;;;;3.08;0.30;;;;;;;11.54;48.59;100079.38;4921996;28;100920;-62
2021/01/13 06:21:47;;;;;;;2.53;0.30;;;;;;;11.58;48.76;100076.13;4921473;28;98332;-62
2021/01/13 06:24:14;;;;;;;1.70;0.30;;;;;;;11.56;48.87;100079.09;4903398;28;117655;-62
2021/01/13 06:27:18;;;;;;;2.20;0.30;;;;;;;11.54;48.56;100090.16;4920391;28;112845;-62
2021/01/13 06:29:59;;;;;;;2.88;0.52;;;;;;;11.54;48.67;100090.16;4905688;28;97877;-62
2021/01/13 06:32:33;;;;;;;3.30;0.50;;;;;;;11.55;48.88;100082.88;4920783;28;117792;-62
2021/01/13 06:35:22;;;;;;;2.30;0.30;;;;;;;11.54;48.69;100086.66;4922399;28;98457;-62
2021/01/13 06:37:49;;;;;;;3.20;0.50;;;;;;;11.56;48.72;100081.81;4920288;28;97902;-61
2021/01/13 06:40:18;;;;;;;2.53;0.50;;;;;;;11.57;48.98;100079.91;4923619;28;97820;-62
2021/01/13 06:42:44;;;;;;;3.45;0.40;;;;;;;11.59;48.68;100083.91;4922102;28;97668;-62
2021/01/13 06:45:11;;;;;;;2.30;0.40;;;;;;;11.61;48.63;100089.84;4920250;28;103011;-62
2021/01/13 06:47:52;;;;;;;2.20;0.30;;;;;;;11.59;49.15;100088.50;4919619;28;98423;-62
2021/01/13 06:50:38;;;;;;;2.47;0.28;;;;;;;11.58;49.05;100087.72;4904775;28;98052;-62
2021/01/13 06:53:12;;;;;;;2.53;0.40;;;;;;;11.59;49.09;100096.63;4906778;28;102560;-62
2021/01/13 06:55:41;;;;;;;2.20;0.32;;;;;;;11.58;48.63;100090.41;4923722;28;98720;-62
2021/01/13 06:58:17;;;;;;;2.95;0.32;;;;;;;11.58;48.82;100090.41;4925587;28;98073;-62
2021/01/13 07:00:45;;;;;;;2.17;0.30;;;;;;;11.59;48.67;100092.03;4924628;28;107975;-62
2021/01/13 07:03:31;;;;;;;2.92;0.32;;;;;;;11.55;48.57;100089.09;4925384;28;100947;-62
2021/01/13 07:06:01;;;;;;;2.47;0.50;;;;;;;11.60;48.83;100090.94;4908173;28;98320;-62
2021/01/13 07:08:27;;;;;;;3.28;0.38;;;;;;;11.61;48.54;100097.16;4924142;28;98227;-62
2021/01/13 07:11:10;;;;;;;3.35;0.47;;;;;;;11.57;48.89;100091.50;4925232;28;103464;-62
2021/01/13 07:13:38;;;;;;;3.20;0.40;;;;;;;11.60;48.55;100096.34;4922875;28;108470;-62
2021/01/13 07:16:05;;;;;;;2.50;0.40;;;;;;;11.64;48.87;100094.69;4922598;28;118025;-62
2021/01/13 07:18:32;;;;;;;3.63;0.45;;;;;;;11.62;48.69;100104.16;4925059;28;98162;-63
2021/01/13 07:21:06;;;;;;;2.25;0.40;;;;;;;11.59;48.85;100100.13;4925735;28;98149;-62
2021/01/13 07:23:33;;;;;;;3.42;0.40;;;;;;;11.63;48.49;100103.06;4925051;28;98221;-62
2021/01/13 07:25:59;;;;;;;4.10;0.60;;;;;;;11.61;49.02;100103.34;4924577;28;97957;-62
2021/01/13 07:28:25;;;;;;;2.03;0.40;;;;;;;11.65;48.29;100099.00;4906977;28;115293;-62
2021/01/13 07:30:52;;;;;;;2.35;0.50;;;;;;;11.64;48.99;100102.00;4905865;28;115786;-62
2021/01/13 07:33:18;;;;;;;3.65;0.60;;;;;;;11.68;48.72;100100.34;4889683;28;115091;-62
2021/01/13 07:35:46;;;;;;;2.63;0.50;;;;;;;11.67;48.25;100104.09;4873668;28;100141;-62
2021/01/13 07:38:20;;;;;;;3.00;0.60;;;;;;;11.66;48.56;100100.59;4906000;28;98170;-62
2021/01/13 07:41:03;;;;;;;4.07;0.60;;;;;;;11.69;48.57;100093.84;4923311;28;107379;-62
2021/01/13 07:44:03;;;;;;;3.65;0.50;;;;;;;11.72;48.63;100098.69;4924370;28;99415;-62
2021/01/13 07:46:33;;;;;;;3.63;0.57;;;;;;;11.71;48.56;100089.78;4925030;28;98565;-62
2021/01/13 07:49:24;;;;;;;2.63;0.52;;;;;;;11.75;48.44;100095.38;4924134;28;98164;-62
2021/01/13 07:52:01;;;;;;;3.20;0.50;;;;;;;11.79;48.72;100097.25;4911871;28;97784;-62
2021/01/13 07:54:37;;;;;;;3.88;0.70;;;;;;;11.82;49.26;100093.16;4904948;28;98750;-62
2021/01/13 07:57:07;;;;;;;3.30;0.85;;;;;;;11.83;48.78;100089.44;4919254;28;99058;-62
2021/01/13 07:59:44;;;;;;;3.88;0.75;;;;;;;11.85;48.74;100098.03;4918495;28;98002;-62
2021/01/13 08:02:47;;;;;;;3.15;0.75;;;;;;;11.85;49.20;100098.03;4923867;28;97829;-62
2021/01/13 08:05:38;;;;;;;2.58;0.70;;;;;;;11.89;48.51;100109.88;4923266;28;98636;-62
2021/01/13 08:08:08;;;;;;;3.17;0.73;;;;;;;11.93;48.81;100110.13;4921346;28;98688;-62
2021/01/13 08:10:39;;;;;;;4.47;0.70;;;;;;;11.91;48.84;100099.63;4920315;28;108874;-62
2021/01/13 08:13:39;;;;;;;2.58;0.57;;;;;;;11.96;49.58;100099.56;4924214;28;97904;-62
2021/01/13 08:16:25;;;;;;;3.83;0.60;;;;;;;12.00;48.94;100097.91;4924986;28;98819;-62
2021/01/13 08:19:41;;;;;;;3.42;0.50;;;;;;;12.01;49.53;100102.19;4921569;28;98276;-62
2021/01/13 08:22:19;;;;;;;2.35;0.40;;;;;;;12.08;49.27;100104.56;4922825;28;97978;-62
2021/01/13 08:24:45;;;;;;;4.18;0.77;;;;;;;12.13;49.47;100104.50;4922722;28;97726;-62
2021/01/13 08:27:12;;;;;;;3.40;0.60;;;;;;;12.12;49.33;100105.63;4904176;28;98799;-62
2021/01/13 08:29:40;;;;;;;3.33;0.52;;;;;;;12.14;49.63;100102.63;4922560;28;109985;-63
2021/01/13 08:32:12;;;;;;;3.65;0.50;;;;;;;12.12;49.44;100100.22;4923148;28;97729;-62
2021/01/13 08:34:41;;;;;;;3.05;0.55;;;;;;;12.13;49.83;100107.22;4923982;28;98000;-62
2021/01/13 08:37:08;;;;;;;3.00;0.60;;;;;;;12.10;50.05;100099.69;4922982;28;98132;-62
2021/01/13 08:39:34;;;;;;;3.67;0.35;;;;;;;12.07;49.90;100102.19;4923404;28;118230;-62
2021/01/13 08:42:21;;;;;;;3.40;0.77;;;;;;;12.04;50.38;100106.25;4922920;28;98328;-62
2021/01/13 08:44:47;;;;;;;2.67;0.50;;;;;;;12.09;50.25;100099.97;4924180;28;97793;-63
2021/01/13 08:47:13;;;;;;;1.92;0.40;;;;;;;12.09;50.34;100100.78;4922773;28;98136;-62
2021/01/13 08:49:40;;;;;;;3.03;0.75;;;;;;;12.14;49.92;100095.31;4905006;28;99424;-63
2021/01/13 08:52:15;;;;;;;3.25;0.63;;;;;;;12.22;49.99;100099.28;4905072;28;98040;-62
2021/01/13 08:54:56;;;;;;;3.13;0.60;;;;;;;12.25;50.14;100094.13;4918253;28;97836;-62
2021/01/13 08:57:24;;;;;;;3.97;0.60;;;;;;;12.23;50.17;100092.81;4899725;28;98856;-62
2021/01/13 08:59:51;;;;;;;2.80;0.60;;;;;;;12.23;50.50;100093.63;4878927;28;121104;-62
2021/01/13 09:02:23;;;;;;;2.88;0.40;;;;;;;12.25;50.25;100102.22;4900623;28;98801;-62
2021/01/13 09:04:57;;;;;;;3.53;0.70;;;;;;;12.27;50.36;100089.25;4899229;28;97878;-62
2021/01/13 09:07:27;;;;;;;3.40;0.50;;;;;;;12.34;50.76;100088.91;4900675;28;99062;-62
2021/01/13 09:10:00;;;;;;;3.33;0.55;;;;;;;12.44;50.15;100077.16;4892188;28;98966;-62
2021/01/13 09:12:39;;;;;;;2.80;0.55;;;;;;;12.41;50.17;100092.03;4863074;28;98271;-62
2021/01/13 09:15:08;;;;;;;2.45;0.52;;;;;;;12.44;50.16;100083.38;4881238;28;97857;-62
2021/01/13 09:17:35;;;;;;;2.90;0.57;;;;;;;12.48;50.58;100084.41;4885569;28;98454;-63
2021/01/13 09:20:06;;;;;;;4.47;0.77;;;;;;;12.49;50.42;100101.41;4887753;28;98561;-62
2021/01/13 09:22:42;;;;;;;2.63;0.40;;;;;;;12.43;50.85;100102.59;4878164;28;97901;-61
2021/01/13 09:25:32;;;;;;;3.50;0.40;;;;;;;12.41;51.01;100102.06;4881095;28;97971;-62
2021/01/13 09:28:13;;;;;;;3.40;0.38;;;;;;;12.38;51.07;100103.44;4872213;28;108825;-62
2021/01/13 09:30:41;;;;;;;3.35;0.50;;;;;;;12.42;51.28;100092.88;4888210;28;110304;-62
2021/01/13 09:33:18;;;;;;;3.00;0.70;;;;;;;12.39;51.59;100091.53;4890061;28;98434;-62
2021/01/13 09:35:47;;;;;;;2.55;0.40;;;;;;;12.40;51.58;100103.97;4884484;28;111362;-62
2021/01/13 09:38:36;;;;;;;3.13;0.50;;;;;;;12.39;51.76;100091.53;4901259;28;98449;-62
2021/01/13 09:41:09;;;;;;;2.45;0.40;;;;;;;12.37;52.21;100092.91;4902562;28;99881;-62
2021/01/13 09:43:46;;;;;;;2.30;0.40;;;;;;;12.32;52.56;100093.78;4904202;28;98451;-62
2021/01/13 09:46:21;;;;;;;3.00;0.30;;;;;;;12.33;52.44;100094.56;4903990;28;97993;-62
2021/01/13 09:49:13;;;;;;;3.33;0.40;;;;;;;12.35;52.30;100095.91;4901980;28;99093;-62
2021/01/13 09:51:39;;;;;;;2.92;0.47;;;;;;;12.37;52.24;100093.72;4902541;28;99146;-62
2021/01/13 09:54:07;;;;;;;3.10;0.38;;;;;;;12.43;52.29;100089.06;4902872;28;116158;-62
2021/01/13 09:56:36;;;;;;;3.17;0.60;;;;;;;12.37;52.63;100091.00;4923351;28;98109;-62
2021/01/13 09:59:05;;;;;;;3.05;0.40;;;;;;;12.37;52.83;100095.63;4923241;28;99114;-63
2021/01/13 10:01:36;;;;;;;2.42;0.32;;;;;;;12.33;52.82;100094.56;4920652;28;116931;-63
2021/01/13 10:04:11;;;;;;;1.77;0.30;;;;;;;12.34;52.74;100080.81;4920698;28;97919;-62
2021/01/13 10:06:41;;;;;;;2.70;0.40;;;;;;;12.31;53.04;100084.06;4920769;28;98204;-62
2021/01/13 10:09:18;;;;;;;4.05;0.45;;;;;;;12.27;52.80;100075.72;4916964;28;118174;-62
2021/01/13 10:11:44;;;;;;;2.65;0.40;;;;;;;12.25;53.25;100079.81;4922317;28;98431;-62
2021/01/13 10:14:10;;;;;;;2.83;0.60;;;;;;;12.24;52.97;100076.31;4921441;28;114205;-62
2021/01/13 10:16:45;;;;;;;3.13;0.40;;;;;;;12.21;53.06;100073.38;4922623;28;98141;-62
2021/01/13 10:19:12;;;;;;;2.47;0.45;;;;;;;12.23;52.91;100079.31;4918081;28;112755;-62
2021/01/13 10:21:43;;;;;;;2.47;0.38;;;;;;;12.22;53.35;100078.50;4904337;28;98473;-62
2021/01/13 10:24:14;;;;;;;2.83;0.40;;;;;;;12.22;52.97;100066.84;4901891;28;99033;-62
2021/01/13 10:26:42;;;;;;;3.03;0.43;;;;;;;12.23;53.06;100063.88;4921231;28;106224;-62
2021/01/13 10:29:09;;;;;;;2.33;0.32;;;;;;;12.25;52.80;100060.88;4922382;28;99155;-62
2021/01/13 10:31:35;;;;;;;2.13;0.30;;;;;;;12.32;52.83;100069.47;4922473;28;98963;-62
2021/01/13 10:34:01;;;;;;;5.00;0.40;;;;;;;12.33;52.84;100052.13;4904921;28;97823;-61
2021/01/13 10:36:33;;;;;;;2.85;0.47;;;;;;;12.30;52.84;100063.56;4885563;28;97721;-62
2021/01/13 10:39:22;;;;;;;4.88;0.50;;;;;;;12.32;52.86;100053.25;4909802;28;99381;-62
2021/01/13 10:42:13;;;;;;;3.03;0.60;;;;;;;12.39;52.46;100063.72;4920061;28;98596;-62
2021/01/13 10:44:39;;;;;;;3.10;0.45;;;;;;;12.44;52.34;100053.63;4919639;28;97853;-62
2021/01/13 10:47:07;;;;;;;3.38;0.50;;;;;;;12.46;52.58;100046.06;4920964;28;104626;-62
2021/01/13 10:49:40;;;;;;;3.25;0.50;;;;;;;12.43;52.38;100054.72;4882601;28;98492;-62
2021/01/13 10:52:14;;;;;;;;;;;;;;;12.43;52.51;100048.53;4919855;28;98443;-62
2021/01/13 10:54:50;;;;;;;3.13;0.60;;;;;;;12.44;52.92;100040.13;4916187;28;97772;-62
2021/01/13 10:57:23;;;;;;;3.00;0.45;;;;;;;12.45;52.69;100036.31;4882881;28;108457;-62
2021/01/13 10:59:49;;;;;;;2.10;0.40;;;;;;;12.48;52.98;100048.44;4884098;28;117144;-62
2021/01/13 11:02:15;;;;;;;3.13;0.40;;;;;;;12.49;52.76;100033.84;4882598;28;127836;-62
2021/01/13 11:04:46;;;;;;;2.80;0.38;;;;;;;12.51;52.98;100029.75;4897915;28;113388;-62
2021/01/13 11:07:21;;;;;;;3.05;0.40;;;;;;;12.47;53.26;100033.34;4892839;28;98045;-62
2021/01/13 11:09:49;;;;;;;3.28;0.40;;;;;;;12.47;52.97;100031.44;4901656;28;98550;-62
2021/01/13 11:12:23;;;;;;;2.17;0.47;;;;;;;12.42;53.28;100028.00;4898845;28;98593;-62
2021/01/13 11:14:53;;;;;;;3.60;0.40;;;;;;;12.42;53.28;100023.41;4896988;28;101995;-62
2021/01/13 11:17:24;;;;;;;3.15;0.50;;;;;;;12.48;53.23;100032.22;4901168;28;97977;-62
2021/01/13 11:19:53;;;;;;;2.50;0.30;;;;;;;12.43;53.02;100016.09;4901251;28;116678;-62
2021/01/13 11:22:44;;;;;;;2.63;0.50;;;;;;;12.34;53.26;100012.41;4901812;28;98697;-62
2021/01/13 11:25:27;;;;;;;3.10;0.50;;;;;;;12.26;53.58;100003.03;4902281;28;98075;-62
2021/01/13 11:28:02;;;;;;;4.00;0.57;;;;;;;12.23;53.22;100006.34;4899776;28;97955;-62
2021/01/13 11:30:29;;;;;;;2.60;0.38;;;;;;;12.27;53.31;99991.16;4902028;28;98302;-62
2021/01/13 11:32:58;;;;;;;2.22;0.40;;;;;;;12.22;53.23;100000.13;4882045;28;119901;-63
2021/01/13 11:35:32;;;;;;;4.13;0.40;;;;;;;12.24;53.30;100003.34;4902187;28;97990;-62
2021/01/13 11:38:40;;;;;;;2.25;0.50;;;;;;;12.20;53.26;100004.22;4902808;28;104067;-61
2021/01/13 11:41:44;;;;;;;2.17;0.47;;;;;;;12.17;53.15;99997.47;4902432;28;113896;-62
2021/01/13 11:44:34;;;;;;;3.15;0.40;;;;;;;12.15;53.35;99996.19;4889617;28;98642;-62
2021/01/13 11:47:11;;;;;;;5.28;0.50;;;;;;;12.20;53.10;100002.31;4901665;28;98178;-62
2021/01/13 11:49:44;;;;;;;3.95;0.60;;;;;;;12.26;53.09;99992.22;4881819;28;97992;-62
2021/01/13 11:52:13;;;;;;;2.85;0.40;;;;;;;12.26;52.76;99995.75;4903318;28;98602;-62